Time;durP1;ratioP1;P1;durP2;ratioP2;P2;SDS_P1;SDS_P2;PMS_P1;PMS_P2;Temp;Humidity;BMP_temperature;BMP_pressure;BME280_temperature;BME280_humidity;BME280_pressure;Samples;Min_cycle;Max_cycle;Signal;HPM_P1;HPM_P2
2023/11/26 00:00:47;;;;;;;20.80;8.80;;;;;;;8.78;67.44;98842.02;106289;1259;60412;-85
2023/11/26 00:03:30;;;;;;;19.70;8.90;;;;;;;8.82;67.01;98837.77;106214;1256;60522;-87
2023/11/26 00:06:11;;;;;;;17.60;8.50;;;;;;;8.76;67.19;98838.64;106466;1256;72861;-86
2023/11/26 00:08:51;;;;;;;18.10;9.00;;;;;;;8.79;66.91;98831.85;106628;1256;68467;-86
2023/11/26 00:11:31;;;;;;;16.90;8.20;;;;;;;8.70;67.47;98835.31;106658;1253;72692;-87
2023/11/26 00:14:10;;;;;;;19.00;8.50;;;;;;;8.41;69.27;98841.26;106359;1259;60488;-85
2023/11/26 00:16:50;;;;;;;16.20;8.00;;;;;;;8.35;70.21;98845.13;106307;1253;60552;-87
2023/11/26 00:19:32;;;;;;;15.00;7.80;;;;;;;8.34;70.53;98842.10;106328;1253;72613;-87
2023/11/26 00:22:12;;;;;;;18.40;7.80;;;;;;;8.55;69.44;98849.16;106408;1258;67267;-84
2023/11/26 00:24:52;;;;;;;14.30;7.80;;;;;;;8.37;70.43;98855.70;106259;1253;71552;-87
2023/11/26 00:27:33;;;;;;;20.00;8.50;;;;;;;8.44;70.22;98862.98;106500;1256;60863;-85
2023/11/26 00:30:13;;;;;;;17.90;8.20;;;;;;;8.43;70.46;98863.13;106342;1256;60338;-87
2023/11/26 00:32:53;;;;;;;15.40;8.50;;;;;;;8.43;70.75;98851.31;106095;1256;72623;-86
2023/11/26 00:35:37;;;;;;;18.30;8.30;;;;;;;8.38;70.90;98842.20;106194;1257;67060;-86
2023/11/26 00:38:17;;;;;;;21.40;9.20;;;;;;;8.33;71.19;98845.51;106613;1253;72775;-86
2023/11/26 00:41:00;;;;;;;16.90;7.60;;;;;;;8.27;72.01;98846.27;106281;1253;61166;-86
2023/11/26 00:43:40;;;;;;;16.60;7.10;;;;;;;8.37;71.34;98838.08;106349;1258;59799;-86
2023/11/26 00:46:20;;;;;;;15.20;7.20;;;;;;;8.37;71.06;98837.36;106515;1253;72348;-85
2023/11/26 00:49:05;;;;;;;14.50;7.50;;;;;;;8.42;70.99;98829.95;106392;1257;68688;-84
2023/11/26 00:51:45;;;;;;;14.30;7.20;;;;;;;8.53;69.97;98827.36;106172;1258;72290;-86
2023/11/26 00:54:25;;;;;;;16.40;7.40;;;;;;;8.56;69.39;98826.48;106180;1256;60461;-86
2023/11/26 00:57:05;;;;;;;14.10;7.10;;;;;;;8.59;69.24;98821.80;106250;1254;60066;-86
2023/11/26 00:59:44;;;;;;;15.00;6.90;;;;;;;8.40;70.15;98817.93;106246;1259;72656;-85
2023/11/26 01:02:24;;;;;;;17.70;8.00;;;;;;;8.32;70.84;98813.08;106248;1256;68820;-86
2023/11/26 11:22:56;;;;;;;6.10;4.00;;;;;;;8.87;78.44;98064.33;105619;1263;60423;-83
2023/11/26 11:25:25;;;;;;;6.70;4.20;;;;;;;8.84;78.94;98053.41;105258;1266;72605;-83
2023/11/26 11:27:59;;;;;;;7.50;4.90;;;;;;;8.84;79.02;98052.32;105377;1268;67336;-78
2023/11/26 11:30:39;;;;;;;8.20;4.40;;;;;;;8.87;78.60;98040.63;108356;1264;71522;-78
2023/11/26 11:33:13;;;;;;;6.60;3.70;;;;;;;8.94;78.65;98031.94;108344;1267;60923;-79
2023/11/26 11:35:45;;;;;;;7.20;4.50;;;;;;;8.99;78.82;98036.97;105549;1271;59334;-77
2023/11/26 11:38:21;;;;;;;5.50;3.60;;;;;;;8.99;78.80;98036.27;105173;1271;72835;-78
2023/11/26 11:40:58;;;;;;;7.90;4.00;;;;;;;8.97;79.37;98033.38;105168;1270;68519;-77
2023/11/26 11:43:32;;;;;;;7.30;4.10;;;;;;;9.10;78.33;98037.24;105674;1267;75508;-79
2023/11/26 11:46:01;;;;;;;7.10;3.90;;;;;;;8.95;79.32;98039.81;105196;1270;60845;-78
2023/11/26 11:48:37;;;;;;;9.70;4.10;;;;;;;8.85;80.34;98033.89;104915;1266;60656;-78
2023/11/26 11:51:34;;;;;;;7.20;5.00;;;;;;;8.92;80.36;98039.51;105186;1271;72700;-78
2023/11/26 11:54:11;;;;;;;4.80;3.80;;;;;;;8.84;80.62;98043.45;105193;1267;68433;-78
2023/11/26 11:56:40;;;;;;;5.60;3.60;;;;;;;8.96;80.25;98042.98;105389;1267;73271;-78
2023/11/26 11:59:14;;;;;;;6.50;3.90;;;;;;;9.00;79.80;98043.15;105241;1265;60589;-78
2023/11/26 12:01:47;;;;;;;5.10;3.60;;;;;;;9.01;79.61;98035.88;105201;1267;60458;-78
2023/11/26 12:04:42;;;;;;;8.00;4.00;;;;;;;8.88;80.06;98043.30;105279;1270;73890;-83
2023/11/26 12:07:10;;;;;;;6.40;4.10;;;;;;;8.88;80.40;98036.13;105761;1267;68494;-83
2023/11/26 12:09:42;;;;;;;8.00;4.40;;;;;;;8.86;80.54;98031.61;106163;1273;72703;-83
2023/11/26 12:12:18;;;;;;;7.20;3.80;;;;;;;8.87;80.87;98031.33;105806;1266;63079;-84
2023/11/26 12:14:52;;;;;;;6.80;3.60;;;;;;;8.71;81.94;98035.73;105931;1267;59731;-83
2023/11/26 12:17:21;;;;;;;7.80;4.00;;;;;;;8.54;83.14;98028.75;106199;1269;72640;-83
2023/11/26 12:19:58;;;;;;;6.30;4.00;;;;;;;8.46;84.40;98029.09;105819;1270;68833;-78
2023/11/26 12:22:31;;;;;;;27.60;15.90;;;;;;;8.25;86.54;98028.73;105809;1264;72656;-78
2023/11/26 12:25:06;;;;;;;21.60;13.50;;;;;;;8.20;87.25;98020.45;106068;1267;61833;-76
2023/11/26 12:27:36;;;;;;;6.70;4.90;;;;;;;8.20;87.65;98026.66;105622;1269;62292;-77
2023/11/26 12:30:11;;;;;;;8.00;4.60;;;;;;;8.20;88.17;98023.38;105125;1267;73881;-82
2023/11/26 12:32:45;;;;;;;7.80;4.50;;;;;;;8.26;88.23;98022.06;105810;1267;68594;-78
2023/11/26 12:35:20;;;;;;;5.60;3.80;;;;;;;8.29;88.54;98022.21;105821;1266;72538;-79
2023/11/26 12:37:48;;;;;;;7.00;3.90;;;;;;;8.44;87.09;98037.20;106444;1265;60442;-78
2023/11/26 12:40:22;;;;;;;6.10;3.20;;;;;;;8.38;87.75;98038.86;105819;1267;60497;-78
2023/11/26 12:42:54;;;;;;;5.40;3.90;;;;;;;8.50;87.02;98039.55;105792;1267;73940;-79
2023/11/26 12:45:28;;;;;;;;;;;;;;;8.26;88.58;98035.14;106148;1268;67241;-78
2023/11/26 12:47:58;;;;;;;6.90;4.00;;;;;;;8.21;89.40;98014.20;106082;1266;71098;-78
2023/11/26 12:50:41;;;;;;;10.90;5.40;;;;;;;8.19;89.31;98008.95;106869;1270;60459;-79
2023/11/26 12:53:17;;;;;;;7.00;4.90;;;;;;;8.22;89.33;98005.27;105729;1264;60374;-79
2023/11/26 12:55:45;;;;;;;4.60;2.90;;;;;;;8.31;88.88;98012.49;105811;1266;72598;-78
2023/11/26 12:58:20;;;;;;;5.80;4.10;;;;;;;8.33;89.46;98013.45;105756;1272;68902;-79
2023/11/26 13:00:48;;;;;;;5.10;3.90;;;;;;;8.30;89.61;98019.15;105828;1269;71139;-79
2023/11/26 13:03:18;;;;;;;5.30;3.60;;;;;;;8.36;89.15;98008.76;106483;1264;60568;-79
2023/11/26 13:05:46;;;;;;;5.10;2.90;;;;;;;8.31;89.41;97996.95;105784;1267;61006;-79
2023/11/26 13:08:20;;;;;;;5.30;2.70;;;;;;;8.18;90.79;97993.53;105760;1267;73909;-79
2023/11/26 13:10:57;;;;;;;5.80;3.50;;;;;;;8.27;90.79;97985.35;105907;1269;67915;-79
2023/11/26 13:13:34;;;;;;;6.90;3.60;;;;;;;8.15;92.23;97980.96;105876;1267;71989;-79
2023/11/26 13:16:07;;;;;;;5.30;3.30;;;;;;;8.12;92.47;97974.24;106638;1266;61405;-79
2023/11/26 13:18:40;;;;;;;4.80;3.30;;;;;;;7.93;94.38;97963.70;105759;1270;60523;-79
2023/11/26 13:21:13;;;;;;;4.80;3.10;;;;;;;7.80;95.46;97947.80;105873;1266;75411;-79
2023/11/26 13:23:47;;;;;;;4.20;3.20;;;;;;;7.82;97.05;97916.62;106415;1270;67285;-79
2023/11/26 13:26:17;;;;;;;4.60;3.00;;;;;;;7.85;97.89;97865.25;106207;1267;71417;-79
2023/11/26 13:28:49;;;;;;;6.00;3.70;;;;;;;7.96;97.67;97829.66;105986;1267;60591;-79
2023/11/26 13:31:16;;;;;;;4.70;2.80;;;;;;;-73.57;38.98;39119.74;103983;1265;1003116;-79
2023/11/26 13:33:48;;;;;;;3.60;2.70;;;;;;;-19.22;77.96;78231.44;104597;1267;1002325;-79
2023/11/26 13:36:20;;;;;;;5.40;2.90;;;;;;;-19.42;79.72;78240.13;105741;1265;1058287;-79
2023/11/26 13:38:52;;;;;;;4.40;3.20;;;;;;;7.77;100.00;97824.30;105802;1267;72687;-81
2023/11/26 13:41:24;;;;;;;4.80;3.10;;;;;;;7.77;99.37;97852.95;105864;1268;60648;-81
2023/11/26 13:43:59;;;;;;;5.30;3.30;;;;;;;7.81;99.14;97872.90;105791;1268;60334;-81
2023/11/26 13:46:27;;;;;;;4.50;3.00;;;;;;;7.94;98.34;97865.70;106310;1265;72889;-81
2023/11/26 13:49:01;;;;;;;3.50;2.70;;;;;;;8.03;97.31;97879.21;105908;1273;67345;-78
2023/11/26 13:51:28;;;;;;;4.70;2.80;;;;;;;7.85;98.39;97879.61;105970;1267;72735;-78
2023/11/26 13:54:00;;;;;;;5.90;3.00;;;;;;;7.79;99.11;97878.02;105855;1267;60570;-78
2023/11/26 13:56:32;;;;;;;4.30;2.90;;;;;;;7.85;98.42;97867.04;106598;1267;60509;-78
2023/11/26 13:59:04;;;;;;;4.40;3.00;;;;;;;7.84;98.65;97867.94;105909;1267;75935;-76
2023/11/26 14:01:37;;;;;;;5.20;3.30;;;;;;;7.89;98.12;97863.63;105137;1271;68427;-81
2023/11/26 14:04:10;;;;;;;4.50;3.20;;;;;;;7.94;97.85;97863.75;105012;1273;72744;-81
2023/11/26 14:06:42;;;;;;;7.20;3.70;;;;;;;7.97;97.43;97876.70;106401;1273;61394;-82
2023/11/26 14:09:17;;;;;;;5.80;3.50;;;;;;;8.01;96.88;97886.67;106162;1267;61177;-82
2023/11/26 14:11:51;;;;;;;6.70;3.80;;;;;;;8.02;96.94;97886.15;105740;1265;72794;-82
2023/11/26 14:14:27;;;;;;;5.90;3.10;;;;;;;8.06;96.59;97888.09;105626;1267;68753;-81
2023/11/26 14:16:58;;;;;;;4.70;3.40;;;;;;;8.11;96.17;97885.28;106158;1270;72777;-82
2023/11/26 14:19:26;;;;;;;5.20;3.50;;;;;;;8.23;95.30;97895.48;105645;1266;60486;-80
2023/11/26 14:22:00;;;;;;;5.00;3.20;;;;;;;8.24;94.94;97905.30;105676;1266;60449;-82
2023/11/26 14:24:27;;;;;;;4.90;3.10;;;;;;;8.17;95.07;97898.73;105846;1269;73081;-82
2023/11/26 14:26:56;;;;;;;6.80;3.70;;;;;;;8.10;95.31;97903.60;106545;1267;67336;-82
2023/11/26 14:29:26;;;;;;;5.30;3.60;;;;;;;8.14;95.19;97901.35;105756;1269;71247;-82
2023/11/26 14:31:54;;;;;;;5.10;3.60;;;;;;;8.22;94.46;97891.55;106047;1265;60864;-80
2023/11/26 14:34:30;;;;;;;6.60;3.60;;;;;;;8.23;94.36;97888.25;105818;1270;59384;-80
2023/11/26 14:36:58;;;;;;;10.40;4.80;;;;;;;8.23;93.95;97879.77;105935;1266;72670;-81
2023/11/26 14:39:32;;;;;;;14.60;6.50;;;;;;;8.22;94.42;97869.08;106378;1267;67176;-82
2023/11/26 14:42:00;;;;;;;7.50;3.80;;;;;;;8.22;94.12;97863.00;105952;1265;72822;-82
2023/11/26 14:44:28;;;;;;;9.70;4.70;;;;;;;8.27;93.65;97860.58;106160;1265;59380;-82
2023/11/26 14:47:01;;;;;;;8.70;3.80;;;;;;;8.32;93.04;97853.19;106062;1270;60483;-80
2023/11/26 14:49:29;;;;;;;6.10;4.10;;;;;;;8.27;93.82;97847.59;106669;1265;73849;-82
2023/11/26 14:51:57;;;;;;;5.00;3.30;;;;;;;8.24;93.79;97849.90;105946;1265;68446;-82
2023/11/26 14:54:31;;;;;;;7.50;4.00;;;;;;;8.19;94.39;97850.15;105791;1270;73906;-81
2023/11/26 14:56:59;;;;;;;5.10;3.50;;;;;;;8.25;94.40;97856.54;105667;1270;60543;-80
2023/11/26 14:59:35;;;;;;;3.70;3.10;;;;;;;8.24;94.74;97872.05;106371;1264;61086;-81
2023/11/26 15:02:03;;;;;;;5.10;3.00;;;;;;;8.28;94.17;97876.17;105899;1266;74173;-80
2023/11/26 15:04:35;;;;;;;4.80;3.30;;;;;;;8.24;94.15;97883.41;105730;1270;69345;-82
2023/11/26 15:07:09;;;;;;;5.90;3.60;;;;;;;8.13;94.84;97858.23;105739;1265;75396;-81
2023/11/26 15:09:42;;;;;;;4.00;2.40;;;;;;;8.07;94.78;97843.15;106428;1269;61351;-81
2023/11/26 15:12:20;;;;;;;5.10;3.00;;;;;;;8.02;95.97;97829.73;105590;1271;61177;-80
2023/11/26 15:14:47;;;;;;;5.10;3.10;;;;;;;7.93;96.92;97832.02;105764;1269;76107;-80
2023/11/26 15:17:21;;;;;;;5.20;3.10;;;;;;;8.00;97.27;97831.70;105844;1267;68667;-80
2023/11/26 15:19:55;;;;;;;4.90;3.10;;;;;;;8.14;96.32;97851.30;106356;1266;74743;-80
2023/11/26 15:22:23;;;;;;;6.10;3.20;;;;;;;8.17;95.58;97855.39;105926;1265;59558;-80
2023/11/26 15:25:03;;;;;;;4.30;2.30;;;;;;;8.23;94.97;97859.00;105968;1266;60419;-79
2023/11/26 15:27:37;;;;;;;4.70;2.30;;;;;;;8.29;94.24;97848.38;106280;1267;72654;-78
2023/11/26 15:30:14;;;;;;;5.20;3.00;;;;;;;8.25;94.22;97844.56;105227;1270;70082;-77
2023/11/26 15:32:54;;;;;;;5.70;3.80;;;;;;;8.19;94.45;97832.70;105326;1266;74917;-82
2023/11/26 15:35:34;;;;;;;13.90;7.10;;;;;;;8.10;95.05;97829.13;105206;1271;60500;-82
2023/11/26 15:38:10;;;;;;;9.40;5.60;;;;;;;8.11;95.05;97835.17;105521;1265;62343;-83
2023/11/26 15:40:46;;;;;;;6.00;3.80;;;;;;;8.05;95.36;97845.95;105587;1266;74726;-82
2023/11/26 15:43:27;;;;;;;10.80;4.40;;;;;;;7.90;99.68;97869.05;105188;1266;70767;-83
2023/11/26 15:46:06;;;;;;;9.30;3.80;;;;;;;7.95;98.49;97859.68;105508;1268;71930;-82
2023/11/26 15:48:41;;;;;;;9.80;4.50;;;;;;;8.10;97.26;97832.48;105248;1266;62773;-82
2023/11/26 15:51:15;;;;;;;4.80;3.10;;;;;;;8.19;96.34;97808.26;105587;1267;60772;-82
2023/11/26 15:53:55;;;;;;;5.30;3.50;;;;;;;8.04;96.90;97798.59;107972;1267;71759;-78
2023/11/26 15:56:42;;;;;;;5.70;3.30;;;;;;;8.02;97.36;97780.89;105131;1265;68382;-77
2023/11/26 15:59:22;;;;;;;5.60;3.10;;;;;;;8.02;97.25;97761.84;105316;1265;72510;-77
2023/11/26 16:02:00;;;;;;;6.00;3.50;;;;;;;8.04;97.19;97763.56;105825;1267;61425;-77
2023/11/26 18:23:07;;;;;;;2.90;1.90;;;;;;;8.77;87.79;97660.94;104975;1265;72595;-75
2023/11/26 18:25:48;;;;;;;2.10;1.20;;;;;;;8.78;87.67;97645.84;104987;1270;69612;-75
2023/11/26 18:28:27;;;;;;;2.00;1.40;;;;;;;8.94;86.29;97649.64;105359;1265;72710;-75
2023/11/26 18:30:55;;;;;;;1.70;1.40;;;;;;;8.91;86.88;97662.08;104872;1267;60511;-81
2023/11/26 18:33:35;;;;;;;2.20;1.60;;;;;;;8.92;86.88;97655.08;104989;1265;60487;-83
2023/11/26 18:36:20;;;;;;;2.00;1.50;;;;;;;8.91;86.74;97646.83;105706;1266;75145;-76
2023/11/26 18:39:01;;;;;;;2.40;1.50;;;;;;;8.86;89.03;97654.65;104817;1265;67001;-75
2023/11/26 18:41:28;;;;;;;2.70;1.60;;;;;;;8.79;88.71;97655.79;104885;1267;72970;-75
2023/11/26 18:44:08;;;;;;;2.50;1.60;;;;;;;8.66;89.28;97652.46;104870;1265;60850;-84
2023/11/26 18:46:48;;;;;;;3.10;2.10;;;;;;;8.69;88.99;97648.20;105258;1265;60432;-83
2023/11/26 18:49:28;;;;;;;2.80;1.50;;;;;;;8.61;89.09;97641.73;104917;1265;76816;-82
2023/11/26 18:51:56;;;;;;;3.40;1.70;;;;;;;8.66;88.84;97632.40;104912;1266;68374;-81
2023/11/26 18:54:37;;;;;;;2.30;1.90;;;;;;;8.60;89.09;97626.67;105142;1265;75072;-75
2023/11/26 18:57:17;;;;;;;4.20;2.30;;;;;;;8.63;89.05;97613.93;105233;1267;62045;-75
2023/11/26 18:59:50;;;;;;;3.10;1.60;;;;;;;8.68;88.73;97610.55;105013;1266;60647;-75
2023/11/26 19:02:24;;;;;;;3.20;1.70;;;;;;;8.82;87.60;97622.54;104942;1270;76530;-82
2023/11/26 19:05:04;;;;;;;2.10;1.40;;;;;;;8.78;87.50;97630.63;104936;1265;69482;-82
2023/11/26 19:07:44;;;;;;;2.60;1.60;;;;;;;8.89;86.64;97627.54;105251;1265;74868;-75
2023/11/26 19:10:18;;;;;;;3.10;2.00;;;;;;;8.81;86.57;97633.26;104832;1267;60484;-83
2023/11/26 19:12:52;;;;;;;3.20;1.60;;;;;;;8.93;85.65;97652.40;104985;1269;60385;-75
2023/11/26 19:15:32;;;;;;;3.70;1.40;;;;;;;9.10;84.34;97656.64;105077;1267;78754;-75
2023/11/26 19:18:12;;;;;;;3.80;1.90;;;;;;;8.89;85.47;97654.52;105497;1266;68434;-83
2023/11/26 19:20:45;;;;;;;1.80;1.50;;;;;;;8.78;86.40;97647.29;104938;1265;72383;-76
